sensor_id;sensor_type;location;lat;lon;timestamp;temperature;humidity
46440;DHT22;32138;50.966;6.968;2022-09-09T00:00:25;19.70;76.70
46440;DHT22;32138;50.966;6.968;2022-09-09T00:02:28;19.60;76.80
46440;DHT22;32138;50.966;6.968;2022-09-09T00:04:32;19.70;76.70
46440;DHT22;32138;50.966;6.968;2022-09-09T00:06:46;19.70;76.80
46440;DHT22;32138;50.966;6.968;2022-09-09T00:09:15;19.70;77.00
46440;DHT22;32138;50.966;6.968;2022-09-09T00:11:22;19.60;76.90
46440;DHT22;32138;50.966;6.968;2022-09-09T00:13:46;19.60;77.10
46440;DHT22;32138;50.966;6.968;2022-09-09T00:19:54;19.60;77.20
46440;DHT22;32138;50.966;6.968;2022-09-09T00:21:35;19.40;77.50
46440;DHT22;32138;50.966;6.968;2022-09-09T00:23:55;19.50;77.40
46440;DHT22;32138;50.966;6.968;2022-09-09T00:28:18;19.50;77.40
46440;DHT22;32138;50.966;6.968;2022-09-09T00:30:23;19.60;77.40
46440;DHT22;32138;50.966;6.968;2022-09-09T00:32:29;19.70;77.10
46440;DHT22;32138;50.966;6.968;2022-09-09T00:34:31;19.60;77.50
46440;DHT22;32138;50.966;6.968;2022-09-09T00:36:35;19.70;76.90
46440;DHT22;32138;50.966;6.968;2022-09-09T00:38:46;19.50;76.60
46440;DHT22;32138;50.966;6.968;2022-09-09T00:40:52;19.40;76.90
46440;DHT22;32138;50.966;6.968;2022-09-09T00:43:30;19.40;77.10
46440;DHT22;32138;50.966;6.968;2022-09-09T00:48:11;19.30;76.90
46440;DHT22;32138;50.966;6.968;2022-09-09T01:01:58;19.40;75.20
46440;DHT22;32138;50.966;6.968;2022-09-09T01:04:00;19.40;75.00
46440;DHT22;32138;50.966;6.968;2022-09-09T01:10:58;19.30;74.90
46440;DHT22;32138;50.966;6.968;2022-09-09T01:13:02;19.30;75.00
46440;DHT22;32138;50.966;6.968;2022-09-09T01:28:21;19.30;74.80
46440;DHT22;32138;50.966;6.968;2022-09-09T01:30:23;19.10;75.10
46440;DHT22;32138;50.966;6.968;2022-09-09T01:32:44;19.10;75.60
46440;DHT22;32138;50.966;6.968;2022-09-09T01:34:50;19.10;75.60
46440;DHT22;32138;50.966;6.968;2022-09-09T01:37:06;19.20;75.90
46440;DHT22;32138;50.966;6.968;2022-09-09T01:39:08;19.20;75.80
46440;DHT22;32138;50.966;6.968;2022-09-09T01:41:10;19.20;75.90
46440;DHT22;32138;50.966;6.968;2022-09-09T01:43:11;19.20;75.90
46440;DHT22;32138;50.966;6.968;2022-09-09T01:45:11;19.20;76.00
46440;DHT22;32138;50.966;6.968;2022-09-09T01:47:13;19.20;75.80
46440;DHT22;32138;50.966;6.968;2022-09-09T01:49:16;19.30;75.80
46440;DHT22;32138;50.966;6.968;2022-09-09T01:51:18;19.40;75.90
46440;DHT22;32138;50.966;6.968;2022-09-09T01:53:20;19.20;76.00
46440;DHT22;32138;50.966;6.968;2022-09-09T01:55:30;19.10;76.80
46440;DHT22;32138;50.966;6.968;2022-09-09T01:57:50;19.20;77.00
46440;DHT22;32138;50.966;6.968;2022-09-09T02:00:14;19.10;77.10
46440;DHT22;32138;50.966;6.968;2022-09-09T02:02:22;19.10;77.30
46440;DHT22;32138;50.966;6.968;2022-09-09T02:04:42;19.20;77.00
46440;DHT22;32138;50.966;6.968;2022-09-09T02:06:46;19.30;77.00
46440;DHT22;32138;50.966;6.968;2022-09-09T02:08:50;19.10;77.50
46440;DHT22;32138;50.966;6.968;2022-09-09T02:10:55;19.10;77.40
46440;DHT22;32138;50.966;6.968;2022-09-09T02:13:09;19.20;77.30
46440;DHT22;32138;50.966;6.968;2022-09-09T02:15:26;19.00;77.30
46440;DHT22;32138;50.966;6.968;2022-09-09T02:17:34;18.90;77.80
46440;DHT22;32138;50.966;6.968;2022-09-09T02:19:41;18.90;78.00
46440;DHT22;32138;50.966;6.968;2022-09-09T02:21:46;19.10;77.40
46440;DHT22;32138;50.966;6.968;2022-09-09T02:23:49;19.00;77.50
46440;DHT22;32138;50.966;6.968;2022-09-09T02:25:53;19.10;77.70
46440;DHT22;32138;50.966;6.968;2022-09-09T02:27:56;19.10;77.40
46440;DHT22;32138;50.966;6.968;2022-09-09T02:30:01;19.10;77.70
46440;DHT22;32138;50.966;6.968;2022-09-09T02:32:07;19.10;78.00
46440;DHT22;32138;50.966;6.968;2022-09-09T02:34:14;18.90;78.70
46440;DHT22;32138;50.966;6.968;2022-09-09T02:36:18;18.90;78.70
46440;DHT22;32138;50.966;6.968;2022-09-09T02:38:21;18.90;78.40
46440;DHT22;32138;50.966;6.968;2022-09-09T02:40:26;19.00;78.70
46440;DHT22;32138;50.966;6.968;2022-09-09T02:42:27;18.90;79.00
46440;DHT22;32138;50.966;6.968;2022-09-09T02:44:28;19.00;78.90
46440;DHT22;32138;50.966;6.968;2022-09-09T02:54:27;19.00;78.10
46440;DHT22;32138;50.966;6.968;2022-09-09T02:56:38;19.10;78.50
46440;DHT22;32138;50.966;6.968;2022-09-09T02:58:42;18.90;78.30
46440;DHT22;32138;50.966;6.968;2022-09-09T03:00:47;18.90;78.40
46440;DHT22;32138;50.966;6.968;2022-09-09T03:02:49;18.90;78.60
46440;DHT22;32138;50.966;6.968;2022-09-09T03:04:51;19.00;78.50
46440;DHT22;32138;50.966;6.968;2022-09-09T03:06:52;19.00;78.80
46440;DHT22;32138;50.966;6.968;2022-09-09T03:08:54;18.90;78.70
46440;DHT22;32138;50.966;6.968;2022-09-09T03:10:55;18.90;78.70
46440;DHT22;32138;50.966;6.968;2022-09-09T03:12:56;18.80;79.00
46440;DHT22;32138;50.966;6.968;2022-09-09T03:14:56;19.00;79.00
46440;DHT22;32138;50.966;6.968;2022-09-09T03:16:57;18.90;79.90
46440;DHT22;32138;50.966;6.968;2022-09-09T03:19:01;18.80;79.40
46440;DHT22;32138;50.966;6.968;2022-09-09T03:21:02;18.90;79.20
46440;DHT22;32138;50.966;6.968;2022-09-09T03:23:02;19.00;79.10
46440;DHT22;32138;50.966;6.968;2022-09-09T03:25:04;18.90;79.10
46440;DHT22;32138;50.966;6.968;2022-09-09T03:27:06;19.10;78.90
46440;DHT22;32138;50.966;6.968;2022-09-09T03:29:07;19.00;79.10
46440;DHT22;32138;50.966;6.968;2022-09-09T03:31:08;19.00;79.10
46440;DHT22;32138;50.966;6.968;2022-09-09T03:33:10;18.90;79.50
46440;DHT22;32138;50.966;6.968;2022-09-09T03:35:11;18.90;79.50
46440;DHT22;32138;50.966;6.968;2022-09-09T03:37:12;18.90;79.50
46440;DHT22;32138;50.966;6.968;2022-09-09T03:39:12;19.00;80.00
46440;DHT22;32138;50.966;6.968;2022-09-09T03:41:14;18.80;79.40
46440;DHT22;32138;50.966;6.968;2022-09-09T03:43:15;18.80;79.70
46440;DHT22;32138;50.966;6.968;2022-09-09T03:45:17;18.90;79.60
46440;DHT22;32138;50.966;6.968;2022-09-09T03:47:18;18.90;79.50
46440;DHT22;32138;50.966;6.968;2022-09-09T03:49:21;18.90;79.60
46440;DHT22;32138;50.966;6.968;2022-09-09T03:51:23;18.90;79.40
46440;DHT22;32138;50.966;6.968;2022-09-09T03:53:24;19.00;79.40
46440;DHT22;32138;50.966;6.968;2022-09-09T03:55:25;19.00;79.30
46440;DHT22;32138;50.966;6.968;2022-09-09T03:57:26;18.90;79.40
46440;DHT22;32138;50.966;6.968;2022-09-09T03:59:27;18.90;79.70
46440;DHT22;32138;50.966;6.968;2022-09-09T04:01:28;18.80;79.50
46440;DHT22;32138;50.966;6.968;2022-09-09T04:03:29;18.90;79.50
46440;DHT22;32138;50.966;6.968;2022-09-09T04:05:30;18.90;79.30
46440;DHT22;32138;50.966;6.968;2022-09-09T04:07:34;18.80;79.70
46440;DHT22;32138;50.966;6.968;2022-09-09T04:09:35;18.80;79.90
46440;DHT22;32138;50.966;6.968;2022-09-09T04:11:35;18.90;79.80
46440;DHT22;32138;50.966;6.968;2022-09-09T04:13:38;18.80;79.90
46440;DHT22;32138;50.966;6.968;2022-09-09T04:15:39;18.80;79.70
46440;DHT22;32138;50.966;6.968;2022-09-09T04:17:40;18.80;80.00
46440;DHT22;32138;50.966;6.968;2022-09-09T04:19:41;18.60;80.40
46440;DHT22;32138;50.966;6.968;2022-09-09T04:21:42;18.60;80.70
46440;DHT22;32138;50.966;6.968;2022-09-09T04:23:43;18.60;80.70
46440;DHT22;32138;50.966;6.968;2022-09-09T04:25:48;18.70;80.30
46440;DHT22;32138;50.966;6.968;2022-09-09T04:27:57;18.80;80.00
46440;DHT22;32138;50.966;6.968;2022-09-09T04:29:58;18.80;80.00
46440;DHT22;32138;50.966;6.968;2022-09-09T04:31:59;18.80;80.00
46440;DHT22;32138;50.966;6.968;2022-09-09T04:34:00;18.90;79.70
46440;DHT22;32138;50.966;6.968;2022-09-09T04:36:06;18.80;79.80
46440;DHT22;32138;50.966;6.968;2022-09-09T04:38:07;18.80;79.70
46440;DHT22;32138;50.966;6.968;2022-09-09T04:40:09;19.00;79.40
46440;DHT22;32138;50.966;6.968;2022-09-09T04:42:10;18.90;79.50
46440;DHT22;32138;50.966;6.968;2022-09-09T04:44:11;18.90;79.20
46440;DHT22;32138;50.966;6.968;2022-09-09T04:46:12;19.00;79.40
46440;DHT22;32138;50.966;6.968;2022-09-09T04:48:13;18.90;79.50
46440;DHT22;32138;50.966;6.968;2022-09-09T04:50:14;18.80;79.50
46440;DHT22;32138;50.966;6.968;2022-09-09T04:52:15;18.80;79.50
46440;DHT22;32138;50.966;6.968;2022-09-09T04:54:17;18.80;79.60
46440;DHT22;32138;50.966;6.968;2022-09-09T04:56:18;18.70;79.50
46440;DHT22;32138;50.966;6.968;2022-09-09T04:58:19;18.80;79.70
46440;DHT22;32138;50.966;6.968;2022-09-09T05:00:22;18.80;79.50
46440;DHT22;32138;50.966;6.968;2022-09-09T05:02:22;18.90;80.10
46440;DHT22;32138;50.966;6.968;2022-09-09T05:04:23;18.90;79.60
46440;DHT22;32138;50.966;6.968;2022-09-09T05:06:24;18.90;79.30
46440;DHT22;32138;50.966;6.968;2022-09-09T05:08:24;18.90;80.00
46440;DHT22;32138;50.966;6.968;2022-09-09T05:10:25;18.90;79.30
46440;DHT22;32138;50.966;6.968;2022-09-09T05:12:26;18.90;79.20
46440;DHT22;32138;50.966;6.968;2022-09-09T05:14:27;18.90;79.30
46440;DHT22;32138;50.966;6.968;2022-09-09T05:16:28;18.90;79.30
46440;DHT22;32138;50.966;6.968;2022-09-09T05:18:29;18.90;79.30
46440;DHT22;32138;50.966;6.968;2022-09-09T05:20:29;18.80;79.70
46440;DHT22;32138;50.966;6.968;2022-09-09T05:22:30;18.80;79.90
46440;DHT22;32138;50.966;6.968;2022-09-09T05:24:31;18.80;80.00
46440;DHT22;32138;50.966;6.968;2022-09-09T05:26:33;18.80;79.90
46440;DHT22;32138;50.966;6.968;2022-09-09T05:28:34;18.70;80.20
46440;DHT22;32138;50.966;6.968;2022-09-09T05:30:36;18.70;80.20
46440;DHT22;32138;50.966;6.968;2022-09-09T05:32:36;18.50;80.90
46440;DHT22;32138;50.966;6.968;2022-09-09T05:34:37;18.60;81.10
46440;DHT22;32138;50.966;6.968;2022-09-09T05:36:39;18.60;81.20
46440;DHT22;32138;50.966;6.968;2022-09-09T05:38:40;18.80;81.10
46440;DHT22;32138;50.966;6.968;2022-09-09T05:40:47;18.70;81.10
46440;DHT22;32138;50.966;6.968;2022-09-09T05:42:48;18.60;81.60
46440;DHT22;32138;50.966;6.968;2022-09-09T05:44:49;18.60;81.90
46440;DHT22;32138;50.966;6.968;2022-09-09T05:46:51;18.60;81.90
46440;DHT22;32138;50.966;6.968;2022-09-09T05:48:52;18.60;82.10
46440;DHT22;32138;50.966;6.968;2022-09-09T05:50:53;18.40;82.50
46440;DHT22;32138;50.966;6.968;2022-09-09T05:52:54;18.50;82.60
46440;DHT22;32138;50.966;6.968;2022-09-09T05:54:55;18.40;83.40
46440;DHT22;32138;50.966;6.968;2022-09-09T05:56:57;18.50;82.80
46440;DHT22;32138;50.966;6.968;2022-09-09T05:58:58;18.60;82.30
46440;DHT22;32138;50.966;6.968;2022-09-09T06:01:08;18.60;82.30
46440;DHT22;32138;50.966;6.968;2022-09-09T06:03:13;19.00;81.30
46440;DHT22;32138;50.966;6.968;2022-09-09T06:05:14;19.00;80.70
46440;DHT22;32138;50.966;6.968;2022-09-09T06:07:15;18.70;80.80
46440;DHT22;32138;50.966;6.968;2022-09-09T06:09:17;18.70;80.70
46440;DHT22;32138;50.966;6.968;2022-09-09T06:11:22;18.50;80.10
46440;DHT22;32138;50.966;6.968;2022-09-09T06:13:25;18.50;80.70
46440;DHT22;32138;50.966;6.968;2022-09-09T06:15:26;18.60;80.50
46440;DHT22;32138;50.966;6.968;2022-09-09T06:17:27;18.80;80.30
46440;DHT22;32138;50.966;6.968;2022-09-09T06:19:28;18.70;79.60
46440;DHT22;32138;50.966;6.968;2022-09-09T06:21:35;18.70;79.60
46440;DHT22;32138;50.966;6.968;2022-09-09T06:23:39;18.80;79.40
46440;DHT22;32138;50.966;6.968;2022-09-09T06:25:40;18.90;79.10
46440;DHT22;32138;50.966;6.968;2022-09-09T06:27:41;18.90;78.90
46440;DHT22;32138;50.966;6.968;2022-09-09T06:29:42;18.90;78.40
46440;DHT22;32138;50.966;6.968;2022-09-09T06:31:44;18.90;78.60
46440;DHT22;32138;50.966;6.968;2022-09-09T06:33:45;18.80;78.70
46440;DHT22;32138;50.966;6.968;2022-09-09T06:35:51;18.80;78.90
46440;DHT22;32138;50.966;6.968;2022-09-09T06:37:53;18.90;78.70
46440;DHT22;32138;50.966;6.968;2022-09-09T06:39:54;18.90;78.40
46440;DHT22;32138;50.966;6.968;2022-09-09T06:41:55;18.90;78.50
46440;DHT22;32138;50.966;6.968;2022-09-09T06:43:58;18.70;78.90
46440;DHT22;32138;50.966;6.968;2022-09-09T06:46:02;18.90;78.40
46440;DHT22;32138;50.966;6.968;2022-09-09T06:48:04;18.90;78.60
46440;DHT22;32138;50.966;6.968;2022-09-09T06:50:06;19.00;78.30
46440;DHT22;32138;50.966;6.968;2022-09-09T06:52:08;19.00;78.00
46440;DHT22;32138;50.966;6.968;2022-09-09T06:54:10;18.90;78.20
46440;DHT22;32138;50.966;6.968;2022-09-09T06:56:22;19.00;77.90
46440;DHT22;32138;50.966;6.968;2022-09-09T06:58:24;19.00;77.40
46440;DHT22;32138;50.966;6.968;2022-09-09T07:00:25;18.80;77.80
46440;DHT22;32138;50.966;6.968;2022-09-09T07:02:26;18.80;77.90
46440;DHT22;32138;50.966;6.968;2022-09-09T07:04:26;19.00;77.90
46440;DHT22;32138;50.966;6.968;2022-09-09T07:06:32;19.10;77.60
46440;DHT22;32138;50.966;6.968;2022-09-09T07:08:34;19.00;76.60
46440;DHT22;32138;50.966;6.968;2022-09-09T07:10:35;19.00;77.20
46440;DHT22;32138;50.966;6.968;2022-09-09T07:12:36;19.20;77.40
46440;DHT22;32138;50.966;6.968;2022-09-09T07:14:37;19.10;76.20
46440;DHT22;32138;50.966;6.968;2022-09-09T07:16:38;19.10;76.40
46440;DHT22;32138;50.966;6.968;2022-09-09T07:18:40;19.10;76.30
46440;DHT22;32138;50.966;6.968;2022-09-09T07:20:42;19.10;76.10
46440;DHT22;32138;50.966;6.968;2022-09-09T07:22:43;19.10;75.30
46440;DHT22;32138;50.966;6.968;2022-09-09T07:24:43;19.10;75.40
46440;DHT22;32138;50.966;6.968;2022-09-09T07:26:45;19.10;75.80
46440;DHT22;32138;50.966;6.968;2022-09-09T07:28:47;19.10;74.90
46440;DHT22;32138;50.966;6.968;2022-09-09T07:31:01;19.20;75.20
46440;DHT22;32138;50.966;6.968;2022-09-09T07:33:03;19.30;74.80
46440;DHT22;32138;50.966;6.968;2022-09-09T07:35:04;19.40;74.30
46440;DHT22;32138;50.966;6.968;2022-09-09T07:37:05;19.40;72.90
46440;DHT22;32138;50.966;6.968;2022-09-09T07:39:11;19.40;72.50
46440;DHT22;32138;50.966;6.968;2022-09-09T07:41:19;19.50;72.90
46440;DHT22;32138;50.966;6.968;2022-09-09T07:43:26;19.70;72.90
46440;DHT22;32138;50.966;6.968;2022-09-09T07:45:27;19.70;71.90
46440;DHT22;32138;50.966;6.968;2022-09-09T07:47:33;19.70;72.00
46440;DHT22;32138;50.966;6.968;2022-09-09T07:49:34;19.80;71.80
46440;DHT22;32138;50.966;6.968;2022-09-09T07:51:39;19.70;71.60
46440;DHT22;32138;50.966;6.968;2022-09-09T07:53:41;19.80;71.30
46440;DHT22;32138;50.966;6.968;2022-09-09T07:55:42;19.90;70.60
46440;DHT22;32138;50.966;6.968;2022-09-09T07:57:43;20.10;71.20
46440;DHT22;32138;50.966;6.968;2022-09-09T07:59:44;20.20;71.00
46440;DHT22;32138;50.966;6.968;2022-09-09T08:01:48;20.10;70.60
46440;DHT22;32138;50.966;6.968;2022-09-09T08:03:56;19.90;69.50
46440;DHT22;32138;50.966;6.968;2022-09-09T08:06:06;20.00;68.90
46440;DHT22;32138;50.966;6.968;2022-09-09T08:08:08;20.00;70.00
46440;DHT22;32138;50.966;6.968;2022-09-09T08:10:09;20.00;69.50
46440;DHT22;32138;50.966;6.968;2022-09-09T08:12:10;20.00;69.20
46440;DHT22;32138;50.966;6.968;2022-09-09T08:14:13;19.90;68.00
46440;DHT22;32138;50.966;6.968;2022-09-09T08:16:17;19.80;68.20
46440;DHT22;32138;50.966;6.968;2022-09-09T08:18:21;19.80;67.50
46440;DHT22;32138;50.966;6.968;2022-09-09T08:20:23;19.80;68.40
46440;DHT22;32138;50.966;6.968;2022-09-09T08:22:24;19.80;68.50
46440;DHT22;32138;50.966;6.968;2022-09-09T08:24:25;19.70;68.80
46440;DHT22;32138;50.966;6.968;2022-09-09T08:26:31;19.70;68.50
46440;DHT22;32138;50.966;6.968;2022-09-09T08:28:34;19.80;68.60
46440;DHT22;32138;50.966;6.968;2022-09-09T08:30:35;19.70;67.60
46440;DHT22;32138;50.966;6.968;2022-09-09T08:32:37;19.60;68.30
46440;DHT22;32138;50.966;6.968;2022-09-09T08:34:38;19.80;68.10
46440;DHT22;32138;50.966;6.968;2022-09-09T08:36:41;19.80;67.60
46440;DHT22;32138;50.966;6.968;2022-09-09T08:38:46;19.80;67.70
46440;DHT22;32138;50.966;6.968;2022-09-09T08:40:49;19.90;67.30
46440;DHT22;32138;50.966;6.968;2022-09-09T08:42:53;20.00;67.50
46440;DHT22;32138;50.966;6.968;2022-09-09T08:48:01;20.20;66.00
46440;DHT22;32138;50.966;6.968;2022-09-09T08:50:23;20.20;64.90
46440;DHT22;32138;50.966;6.968;2022-09-09T08:54:51;20.10;63.50
46440;DHT22;32138;50.966;6.968;2022-09-09T08:56:52;20.10;63.60
46440;DHT22;32138;50.966;6.968;2022-09-09T08:58:54;20.00;64.20
46440;DHT22;32138;50.966;6.968;2022-09-09T09:03:19;20.00;63.00
46440;DHT22;32138;50.966;6.968;2022-09-09T09:05:32;20.00;63.40
46440;DHT22;32138;50.966;6.968;2022-09-09T09:07:47;20.20;64.00
46440;DHT22;32138;50.966;6.968;2022-09-09T09:10:35;20.30;63.50
46440;DHT22;32138;50.966;6.968;2022-09-09T09:12:42;20.30;63.60
46440;DHT22;32138;50.966;6.968;2022-09-09T09:14:45;20.30;63.20
46440;DHT22;32138;50.966;6.968;2022-09-09T09:19:20;20.30;62.80
46440;DHT22;32138;50.966;6.968;2022-09-09T09:21:44;20.30;63.10
46440;DHT22;32138;50.966;6.968;2022-09-09T09:23:57;20.40;63.20
46440;DHT22;32138;50.966;6.968;2022-09-09T09:26:00;20.40;63.40
46440;DHT22;32138;50.966;6.968;2022-09-09T09:28:12;20.30;63.00
46440;DHT22;32138;50.966;6.968;2022-09-09T09:30:21;20.20;63.80
46440;DHT22;32138;50.966;6.968;2022-09-09T09:32:24;20.20;64.70
46440;DHT22;32138;50.966;6.968;2022-09-09T09:34:27;20.20;64.20
46440;DHT22;32138;50.966;6.968;2022-09-09T09:36:40;20.10;64.20
46440;DHT22;32138;50.966;6.968;2022-09-09T09:38:53;20.10;64.30
46440;DHT22;32138;50.966;6.968;2022-09-09T09:41:00;20.10;64.70
46440;DHT22;32138;50.966;6.968;2022-09-09T09:43:03;20.10;63.90
46440;DHT22;32138;50.966;6.968;2022-09-09T09:47:34;20.10;64.70
46440;DHT22;32138;50.966;6.968;2022-09-09T09:49:35;20.10;64.80
46440;DHT22;32138;50.966;6.968;2022-09-09T09:51:35;20.00;64.50
46440;DHT22;32138;50.966;6.968;2022-09-09T09:53:38;20.00;65.10
46440;DHT22;32138;50.966;6.968;2022-09-09T09:55:49;20.00;65.40
46440;DHT22;32138;50.966;6.968;2022-09-09T09:57:53;20.00;65.60
46440;DHT22;32138;50.966;6.968;2022-09-09T10:00:22;20.10;65.40
46440;DHT22;32138;50.966;6.968;2022-09-09T10:02:24;20.10;65.70
46440;DHT22;32138;50.966;6.968;2022-09-09T10:04:26;20.10;66.60
46440;DHT22;32138;50.966;6.968;2022-09-09T10:06:35;20.10;66.00
46440;DHT22;32138;50.966;6.968;2022-09-09T10:08:45;20.20;65.70
46440;DHT22;32138;50.966;6.968;2022-09-09T10:13:15;20.30;65.90
46440;DHT22;32138;50.966;6.968;2022-09-09T10:17:37;20.30;65.90
46440;DHT22;32138;50.966;6.968;2022-09-09T10:22:28;20.30;64.10
46440;DHT22;32138;50.966;6.968;2022-09-09T10:27:21;20.30;64.60
46440;DHT22;32138;50.966;6.968;2022-09-09T10:30:07;20.30;63.30
46440;DHT22;32138;50.966;6.968;2022-09-09T10:35:25;20.20;63.40
46440;DHT22;32138;50.966;6.968;2022-09-09T10:40:39;20.10;64.00
46440;DHT22;32138;50.966;6.968;2022-09-09T10:42:38;20.20;64.20
46440;DHT22;32138;50.966;6.968;2022-09-09T10:50:15;20.50;63.90
46440;DHT22;32138;50.966;6.968;2022-09-09T10:55:16;20.50;63.10
46440;DHT22;32138;50.966;6.968;2022-09-09T10:57:47;20.60;63.10
46440;DHT22;32138;50.966;6.968;2022-09-09T10:59:53;20.60;62.70
46440;DHT22;32138;50.966;6.968;2022-09-09T11:02:25;20.60;62.60
46440;DHT22;32138;50.966;6.968;2022-09-09T11:06:54;20.80;62.40
46440;DHT22;32138;50.966;6.968;2022-09-09T11:08:57;20.90;61.50
46440;DHT22;32138;50.966;6.968;2022-09-09T11:13:53;21.10;61.60
46440;DHT22;32138;50.966;6.968;2022-09-09T11:18:48;21.00;61.50
46440;DHT22;32138;50.966;6.968;2022-09-09T11:20:54;21.00;62.20
46440;DHT22;32138;50.966;6.968;2022-09-09T11:23:07;21.10;62.50
46440;DHT22;32138;50.966;6.968;2022-09-09T11:25:23;21.20;60.90
46440;DHT22;32138;50.966;6.968;2022-09-09T11:27:31;21.10;61.40
46440;DHT22;32138;50.966;6.968;2022-09-09T11:38:27;21.00;60.70
46440;DHT22;32138;50.966;6.968;2022-09-09T11:40:19;20.90;61.10
46440;DHT22;32138;50.966;6.968;2022-09-09T11:42:24;20.90;61.30
46440;DHT22;32138;50.966;6.968;2022-09-09T11:44:30;20.90;61.50
46440;DHT22;32138;50.966;6.968;2022-09-09T11:46:37;20.80;60.10
46440;DHT22;32138;50.966;6.968;2022-09-09T11:48:41;20.80;60.70
46440;DHT22;32138;50.966;6.968;2022-09-09T11:51:07;20.80;60.60
46440;DHT22;32138;50.966;6.968;2022-09-09T11:57:34;20.80;61.00
46440;DHT22;32138;50.966;6.968;2022-09-09T11:59:36;20.80;60.60
46440;DHT22;32138;50.966;6.968;2022-09-09T12:01:41;20.80;61.00
46440;DHT22;32138;50.966;6.968;2022-09-09T12:03:49;20.80;61.30
46440;DHT22;32138;50.966;6.968;2022-09-09T12:05:53;20.90;61.30
46440;DHT22;32138;50.966;6.968;2022-09-09T12:07:58;20.90;60.40
46440;DHT22;32138;50.966;6.968;2022-09-09T12:10:34;20.80;60.50
46440;DHT22;32138;50.966;6.968;2022-09-09T12:12:38;20.80;60.40
46440;DHT22;32138;50.966;6.968;2022-09-09T12:14:43;20.80;60.40
46440;DHT22;32138;50.966;6.968;2022-09-09T12:16:55;20.70;60.30
46440;DHT22;32138;50.966;6.968;2022-09-09T12:19:13;20.80;61.10
46440;DHT22;32138;50.966;6.968;2022-09-09T12:21:40;20.70;59.60
46440;DHT22;32138;50.966;6.968;2022-09-09T12:28:09;20.80;60.00
46440;DHT22;32138;50.966;6.968;2022-09-09T12:30:41;20.80;60.00
46440;DHT22;32138;50.966;6.968;2022-09-09T12:33:20;20.80;60.20
46440;DHT22;32138;50.966;6.968;2022-09-09T12:35:28;20.80;59.70
46440;DHT22;32138;50.966;6.968;2022-09-09T12:38:12;20.90;60.30
46440;DHT22;32138;50.966;6.968;2022-09-09T12:40:34;20.80;60.00
46440;DHT22;32138;50.966;6.968;2022-09-09T12:42:54;20.80;59.70
46440;DHT22;32138;50.966;6.968;2022-09-09T12:45:22;20.80;60.10
46440;DHT22;32138;50.966;6.968;2022-09-09T12:47:50;20.80;60.50
46440;DHT22;32138;50.966;6.968;2022-09-09T12:49:53;20.70;60.80
46440;DHT22;32138;50.966;6.968;2022-09-09T12:51:56;20.80;60.90
46440;DHT22;32138;50.966;6.968;2022-09-09T12:53:59;20.80;61.20
46440;DHT22;32138;50.966;6.968;2022-09-09T12:56:06;20.70;60.90
46440;DHT22;32138;50.966;6.968;2022-09-09T12:58:13;20.80;61.20
46440;DHT22;32138;50.966;6.968;2022-09-09T13:00:22;20.90;61.70
46440;DHT22;32138;50.966;6.968;2022-09-09T13:02:27;21.10;61.30
46440;DHT22;32138;50.966;6.968;2022-09-09T13:04:28;21.60;60.30
46440;DHT22;32138;50.966;6.968;2022-09-09T13:06:30;21.60;60.60
46440;DHT22;32138;50.966;6.968;2022-09-09T13:08:32;22.90;57.70
46440;DHT22;32138;50.966;6.968;2022-09-09T13:10:39;23.50;56.10
46440;DHT22;32138;50.966;6.968;2022-09-09T13:12:42;22.80;58.50
46440;DHT22;32138;50.966;6.968;2022-09-09T13:14:49;22.30;60.40
46440;DHT22;32138;50.966;6.968;2022-09-09T13:17:02;21.80;61.70
46440;DHT22;32138;50.966;6.968;2022-09-09T13:19:14;21.70;62.80
46440;DHT22;32138;50.966;6.968;2022-09-09T13:21:16;21.60;63.30
46440;DHT22;32138;50.966;6.968;2022-09-09T13:23:28;21.50;63.50
46440;DHT22;32138;50.966;6.968;2022-09-09T13:25:33;21.50;64.40
46440;DHT22;32138;50.966;6.968;2022-09-09T13:27:37;21.40;64.20
46440;DHT22;32138;50.966;6.968;2022-09-09T13:29:39;21.40;64.50
46440;DHT22;32138;50.966;6.968;2022-09-09T13:31:41;21.40;64.80
46440;DHT22;32138;50.966;6.968;2022-09-09T13:33:41;21.40;65.50
46440;DHT22;32138;50.966;6.968;2022-09-09T13:35:55;21.40;65.00
46440;DHT22;32138;50.966;6.968;2022-09-09T13:37:58;21.40;65.30
46440;DHT22;32138;50.966;6.968;2022-09-09T13:40:00;21.40;65.20
46440;DHT22;32138;50.966;6.968;2022-09-09T13:42:03;21.80;62.70
46440;DHT22;32138;50.966;6.968;2022-09-09T13:44:04;21.70;61.20
46440;DHT22;32138;50.966;6.968;2022-09-09T13:46:38;21.60;61.50
46440;DHT22;32138;50.966;6.968;2022-09-09T13:48:41;21.40;61.80
46440;DHT22;32138;50.966;6.968;2022-09-09T13:50:42;21.30;62.40
46440;DHT22;32138;50.966;6.968;2022-09-09T13:52:58;21.40;62.70
46440;DHT22;32138;50.966;6.968;2022-09-09T13:54:59;22.10;61.70
46440;DHT22;32138;50.966;6.968;2022-09-09T13:57:00;22.30;60.70
46440;DHT22;32138;50.966;6.968;2022-09-09T13:59:04;22.40;60.60
46440;DHT22;32138;50.966;6.968;2022-09-09T14:01:06;22.40;60.40
46440;DHT22;32138;50.966;6.968;2022-09-09T14:03:07;22.50;59.30
46440;DHT22;32138;50.966;6.968;2022-09-09T14:05:08;22.20;59.90
46440;DHT22;32138;50.966;6.968;2022-09-09T14:07:12;22.00;59.70
46440;DHT22;32138;50.966;6.968;2022-09-09T14:09:15;21.70;61.00
46440;DHT22;32138;50.966;6.968;2022-09-09T14:11:18;21.60;62.10
46440;DHT22;32138;50.966;6.968;2022-09-09T14:13:19;21.40;61.60
46440;DHT22;32138;50.966;6.968;2022-09-09T14:15:21;21.40;62.20
46440;DHT22;32138;50.966;6.968;2022-09-09T14:17:22;21.30;63.20
46440;DHT22;32138;50.966;6.968;2022-09-09T14:19:23;21.20;63.10
46440;DHT22;32138;50.966;6.968;2022-09-09T14:21:24;21.20;63.30
46440;DHT22;32138;50.966;6.968;2022-09-09T14:23:27;21.00;64.60
46440;DHT22;32138;50.966;6.968;2022-09-09T14:25:28;21.00;66.60
46440;DHT22;32138;50.966;6.968;2022-09-09T14:27:29;20.90;65.90
46440;DHT22;32138;50.966;6.968;2022-09-09T14:29:30;20.80;67.20
46440;DHT22;32138;50.966;6.968;2022-09-09T14:31:31;20.80;66.00
46440;DHT22;32138;50.966;6.968;2022-09-09T14:33:33;20.90;67.20
46440;DHT22;32138;50.966;6.968;2022-09-09T14:35:34;20.90;69.10
46440;DHT22;32138;50.966;6.968;2022-09-09T14:37:36;20.80;70.00
46440;DHT22;32138;50.966;6.968;2022-09-09T14:39:37;20.70;71.10
46440;DHT22;32138;50.966;6.968;2022-09-09T14:41:38;20.70;72.80
46440;DHT22;32138;50.966;6.968;2022-09-09T14:43:39;20.60;73.70
46440;DHT22;32138;50.966;6.968;2022-09-09T14:45:41;20.40;75.50
46440;DHT22;32138;50.966;6.968;2022-09-09T14:47:41;20.30;77.10
46440;DHT22;32138;50.966;6.968;2022-09-09T14:49:42;20.10;77.00
46440;DHT22;32138;50.966;6.968;2022-09-09T14:51:43;20.00;77.50
46440;DHT22;32138;50.966;6.968;2022-09-09T14:53:44;19.90;78.10
46440;DHT22;32138;50.966;6.968;2022-09-09T14:55:45;19.80;78.40
46440;DHT22;32138;50.966;6.968;2022-09-09T14:57:47;19.80;79.10
46440;DHT22;32138;50.966;6.968;2022-09-09T14:59:47;19.70;79.40